Time;durP1;ratioP1;P1;durP2;ratioP2;P2;SDS_P1;SDS_P2;PMS_P1;PMS_P2;Temp;Humidity;BMP_temperature;BMP_pressure;BME280_temperature;BME280_humidity;BME280_pressure;Samples;Min_cycle;Max_cycle;Signal;HPM_P1;HPM_P2
2023/11/14 00:00:06;;;;;;;36.80;5.07;;;12.00;99.90;;;;;;5040344;28;20051;-81
2023/11/14 00:02:33;;;;;;;39.20;7.55;;;12.00;99.90;;;;;;5039540;28;20021;-81
2023/11/14 00:04:59;;;;;;;32.40;5.65;;;12.00;99.90;;;;;;5042357;28;20531;-81
2023/11/14 00:07:25;;;;;;;38.35;6.22;;;12.00;99.90;;;;;;5039207;28;20013;-81
2023/11/14 00:09:51;;;;;;;41.78;5.82;;;12.00;99.90;;;;;;5040978;28;20009;-81
2023/11/14 00:12:19;;;;;;;34.60;5.78;;;12.10;99.90;;;;;;5039299;28;20029;-81
2023/11/14 00:14:45;;;;;;;37.53;4.97;;;12.10;99.90;;;;;;5041740;28;20042;-81
2023/11/14 00:17:11;;;;;;;42.95;6.63;;;12.10;99.90;;;;;;5040501;28;20029;-82
2023/11/14 00:19:38;;;;;;;34.20;7.13;;;12.20;99.90;;;;;;5038971;28;20029;-81
2023/11/14 00:22:04;;;;;;;30.30;5.43;;;12.20;99.90;;;;;;5040903;28;20034;-81
2023/11/14 00:24:30;;;;;;;30.58;5.43;;;12.20;99.90;;;;;;5038962;28;20458;-82
2023/11/14 00:26:58;;;;;;;33.35;6.47;;;12.30;99.90;;;;;;5042376;28;20034;-81
2023/11/14 00:29:24;;;;;;;32.30;5.85;;;12.30;99.90;;;;;;5038612;28;20122;-81
2023/11/14 00:31:49;;;;;;;38.67;6.70;;;12.30;99.90;;;;;;5040173;28;20428;-81
2023/11/14 00:34:15;;;;;;;36.13;5.88;;;12.30;99.90;;;;;;5039837;28;20432;-81
2023/11/14 00:36:41;;;;;;;40.50;6.60;;;12.30;99.90;;;;;;5039158;28;20064;-81
2023/11/14 00:39:08;;;;;;;34.63;5.47;;;12.40;99.90;;;;;;5040535;28;20025;-81
2023/11/14 00:41:35;;;;;;;41.40;6.07;;;12.40;99.90;;;;;;5038253;28;20459;-81
2023/11/14 00:44:02;;;;;;;38.67;5.88;;;12.40;99.90;;;;;;5056860;28;20056;-81
2023/11/14 00:46:28;;;;;;;40.95;6.03;;;12.50;99.90;;;;;;5038507;28;20428;-82
2023/11/14 00:48:54;;;;;;;32.45;5.95;;;12.50;99.90;;;;;;5041603;28;20029;-82
2023/11/14 00:51:20;;;;;;;35.33;5.70;;;12.50;99.90;;;;;;5056161;28;20027;-81
2023/11/14 00:53:45;;;;;;;35.85;5.95;;;12.50;99.90;;;;;;5039741;28;20022;-82
2023/11/14 00:56:11;;;;;;;33.38;4.97;;;12.50;99.90;;;;;;5039871;28;20074;-82
2023/11/14 00:58:38;;;;;;;34.47;5.35;;;12.50;99.90;;;;;;5037781;28;20029;-82
2023/11/14 01:01:04;;;;;;;31.90;6.20;;;12.60;99.90;;;;;;5041686;28;20037;-82
2023/11/14 01:03:30;;;;;;;33.60;5.13;;;12.50;99.90;;;;;;5038529;28;20030;-81
2023/11/14 01:05:55;;;;;;;36.15;6.28;;;12.60;99.90;;;;;;5039794;28;20041;-82
2023/11/14 01:08:21;;;;;;;32.42;5.10;;;12.60;99.90;;;;;;5040729;28;20017;-82
2023/11/14 01:10:47;;;;;;;39.28;6.88;;;12.60;99.90;;;;;;5038518;28;20017;-81
2023/11/14 01:13:13;;;;;;;41.55;5.75;;;12.60;99.90;;;;;;5041705;28;20026;-81
2023/11/14 01:15:40;;;;;;;44.28;6.38;;;12.60;99.90;;;;;;5039285;28;20025;-81
2023/11/14 01:18:06;;;;;;;39.22;5.57;;;12.60;99.80;;;;;;5039857;28;20029;-81
2023/11/14 01:20:31;;;;;;;42.92;6.68;;;12.60;99.70;;;;;;5054692;28;20093;-81
2023/11/14 01:22:57;;;;;;;41.63;6.95;;;12.60;99.40;;;;;;5039706;28;20033;-81
2023/11/14 01:25:23;;;;;;;33.05;5.07;;;12.60;99.40;;;;;;5038373;28;20145;-82
2023/11/14 01:27:49;;;;;;;34.92;4.82;;;12.70;99.40;;;;;;5038477;28;20584;-82
2023/11/14 01:30:15;;;;;;;33.88;6.00;;;12.60;99.20;;;;;;5039675;28;20029;-82
2023/11/14 01:32:40;;;;;;;38.05;6.30;;;12.70;99.40;;;;;;5039252;28;20029;-81
2023/11/14 01:35:06;;;;;;;31.98;4.82;;;12.60;99.30;;;;;;5056416;28;20034;-82
2023/11/14 01:37:33;;;;;;;35.47;5.95;;;12.70;99.30;;;;;;5037856;28;20099;-82
2023/11/14 01:39:58;;;;;;;39.78;7.60;;;12.70;99.30;;;;;;5039282;28;20397;-82
2023/11/14 01:42:24;;;;;;;35.38;6.00;;;12.70;99.30;;;;;;5054845;28;20523;-81
2023/11/14 01:44:50;;;;;;;39.92;7.22;;;12.60;99.30;;;;;;5038817;28;20014;-82
2023/11/14 01:47:16;;;;;;;36.08;5.93;;;12.60;99.30;;;;;;5039362;28;20489;-81
2023/11/14 01:49:42;;;;;;;30.25;4.97;;;12.60;99.40;;;;;;5054671;28;20025;-82
2023/11/14 01:52:10;;;;;;;36.90;6.55;;;12.60;99.40;;;;;;5040092;28;20039;-81
2023/11/14 01:54:37;;;;;;;29.77;5.22;;;12.60;99.50;;;;;;5037725;28;20018;-82
2023/11/14 01:57:04;;;;;;;38.90;6.53;;;12.60;99.50;;;;;;5041017;28;20056;-81
2023/11/14 01:59:30;;;;;;;33.03;6.80;;;12.60;99.60;;;;;;5038368;28;20014;-82
2023/11/14 02:01:57;;;;;;;36.05;6.20;;;12.60;99.70;;;;;;5055516;28;20034;-81
2023/11/14 02:04:25;;;;;;;36.42;6.35;;;12.60;99.80;;;;;;5039239;28;20034;-81
2023/11/14 02:06:52;;;;;;;38.00;6.55;;;12.60;99.90;;;;;;5040829;28;20018;-82
2023/11/14 02:09:18;;;;;;;30.42;6.15;;;12.60;99.90;;;;;;5043209;28;20220;-81
2023/11/14 02:11:45;;;;;;;38.22;5.07;;;12.60;99.90;;;;;;5041396;28;20021;-81
2023/11/14 02:14:13;;;;;;;35.33;6.22;;;12.60;99.90;;;;;;5043421;28;20029;-81
2023/11/14 02:16:47;;;;;;;36.28;5.93;;;12.60;99.90;;;;;;5041732;28;20547;-81
2023/11/14 02:19:13;;;;;;;43.83;7.25;;;12.60;99.90;;;;;;5042453;28;20096;-81
2023/11/14 02:21:39;;;;;;;36.53;5.47;;;12.60;99.90;;;;;;5042787;28;20034;-81
2023/11/14 02:24:08;;;;;;;32.70;4.70;;;12.60;99.90;;;;;;5040918;28;20052;-81
2023/11/14 02:26:35;;;;;;;38.85;6.30;;;12.60;99.90;;;;;;5043369;28;20025;-81
2023/11/14 02:29:00;;;;;;;32.70;5.82;;;12.60;99.90;;;;;;5042499;28;20049;-81
2023/11/14 02:31:28;;;;;;;34.15;6.22;;;12.60;99.90;;;;;;5043467;28;20040;-81
2023/11/14 02:33:53;;;;;;;34.65;6.28;;;12.60;99.90;;;;;;5042862;28;20116;-81
2023/11/14 02:36:19;;;;;;;46.63;6.57;;;12.60;99.90;;;;;;5046467;28;20033;-81
2023/11/14 02:38:44;;;;;;;34.85;5.95;;;12.60;99.90;;;;;;5043128;28;20029;-81
2023/11/14 02:41:10;;;;;;;35.63;4.82;;;12.60;99.90;;;;;;5041261;28;20040;-81
2023/11/14 02:43:36;;;;;;;38.85;6.00;;;12.60;99.90;;;;;;5042802;28;20136;-82
2023/11/14 02:46:01;;;;;;;32.10;5.93;;;12.60;99.90;;;;;;5042054;28;20025;-81
2023/11/14 02:48:27;;;;;;;29.50;5.13;;;12.60;99.90;;;;;;5042732;28;20025;-82
2023/11/14 02:50:56;;;;;;;44.92;5.85;;;12.60;99.90;;;;;;5040819;28;20393;-81
2023/11/14 02:53:23;;;;;;;38.45;5.57;;;12.60;99.90;;;;;;5042884;28;20022;-81
2023/11/14 02:55:50;;;;;;;32.88;5.10;;;12.60;99.90;;;;;;5042239;28;20022;-81
2023/11/14 02:58:16;;;;;;;41.40;6.32;;;12.60;99.90;;;;;;5040760;28;20037;-82
2023/11/14 03:00:51;;;;;;;33.40;5.32;;;12.70;99.90;;;;;;5042607;28;20040;-81
2023/11/14 03:03:17;;;;;;;36.67;7.32;;;12.60;99.90;;;;;;5040295;28;20021;-81
2023/11/14 03:05:44;;;;;;;45.78;8.50;;;12.60;99.90;;;;;;5042058;28;20036;-81
2023/11/14 03:08:11;;;;;;;32.90;6.20;;;12.60;99.90;;;;;;5040581;28;20031;-81
2023/11/14 03:10:38;;;;;;;35.17;5.43;;;12.60;99.90;;;;;;5041154;28;20080;-82
2023/11/14 03:13:06;;;;;;;31.25;5.10;;;12.70;99.90;;;;;;5041902;28;20032;-81
2023/11/14 03:15:32;;;;;;;41.22;6.60;;;12.60;99.90;;;;;;5039991;28;20022;-81
2023/11/14 03:18:02;;;;;;;34.05;5.32;;;12.70;99.90;;;;;;5041400;28;20029;-82
2023/11/14 03:20:28;;;;;;;36.60;6.25;;;12.70;99.90;;;;;;5056630;28;20046;-81
2023/11/14 03:22:55;;;;;;;34.13;6.00;;;12.70;99.90;;;;;;5041629;28;20048;-81
2023/11/14 03:25:21;;;;;;;34.92;5.15;;;12.70;99.90;;;;;;5042126;28;20535;-81
2023/11/14 03:27:47;;;;;;;36.75;5.75;;;12.70;99.90;;;;;;5042343;28;20022;-81
2023/11/14 03:30:13;;;;;;;42.95;7.32;;;12.70;99.90;;;;;;5041412;28;20044;-81
2023/11/14 03:32:39;;;;;;;34.33;6.30;;;12.70;99.90;;;;;;5039714;28;20013;-81
2023/11/14 03:35:05;;;;;;;34.85;5.63;;;12.70;99.90;;;;;;5041776;28;20026;-82
2023/11/14 03:37:34;;;;;;;33.92;4.97;;;12.80;99.90;;;;;;5039657;28;20018;-82
2023/11/14 03:40:00;;;;;;;39.88;6.32;;;12.80;99.90;;;;;;5041689;28;20092;-81
2023/11/14 03:42:25;;;;;;;36.38;7.00;;;12.80;99.90;;;;;;5056518;28;20053;-81
2023/11/14 03:44:51;;;;;;;33.45;6.10;;;12.80;99.90;;;;;;5040965;28;20021;-81
2023/11/14 03:47:17;;;;;;;34.05;5.72;;;12.80;99.90;;;;;;5041760;28;20030;-82
2023/11/14 03:49:42;;;;;;;45.53;6.57;;;12.80;99.90;;;;;;5039846;28;20122;-81
2023/11/14 03:52:08;;;;;;;31.95;6.20;;;12.80;99.90;;;;;;5041498;28;20063;-81
2023/11/14 03:54:35;;;;;;;41.30;6.32;;;12.80;99.90;;;;;;5051874;28;20014;-81
2023/11/14 03:57:01;;;;;;;27.80;4.90;;;12.90;99.90;;;;;;5051164;28;20029;-81
2023/11/14 03:59:27;;;;;;;41.22;6.10;;;12.80;99.90;;;;;;5059207;28;20048;-81
2023/11/14 04:01:52;;;;;;;44.20;7.47;;;12.80;99.90;;;;;;5061699;28;20052;-82
2023/11/14 04:04:18;;;;;;;38.05;6.05;;;12.90;99.90;;;;;;5060417;28;20055;-81
2023/11/14 04:06:44;;;;;;;40.63;6.78;;;12.80;99.80;;;;;;5059259;28;20017;-82
2023/11/14 04:09:10;;;;;;;33.35;5.63;;;12.90;99.70;;;;;;5061409;28;20017;-81
2023/11/14 04:11:47;;;;;;;41.00;7.38;;;12.90;99.70;;;;;;5058897;28;20025;-82
2023/11/14 04:14:13;;;;;;;42.92;7.55;;;12.90;99.60;;;;;;5060822;28;20029;-82
2023/11/14 04:16:39;;;;;;;36.75;5.35;;;12.90;99.30;;;;;;5059170;28;20358;-82
2023/11/14 04:19:05;;;;;;;40.45;7.15;;;12.90;99.20;;;;;;5060011;28;20068;-82
2023/11/14 04:21:30;;;;;;;38.33;7.00;;;13.00;99.10;;;;;;5060047;28;20127;-81
2023/11/14 04:23:56;;;;;;;35.30;5.78;;;13.00;99.10;;;;;;5060146;28;20072;-81
2023/11/14 04:26:22;;;;;;;34.28;6.28;;;13.00;98.90;;;;;;5060951;28;20021;-80
2023/11/14 04:28:48;;;;;;;32.75;4.90;;;13.00;98.90;;;;;;5057512;28;20039;-81
2023/11/14 04:31:14;;;;;;;39.72;8.00;;;13.00;98.80;;;;;;5060611;28;20062;-82
2023/11/14 04:33:39;;;;;;;33.53;5.85;;;13.00;98.70;;;;;;5058859;28;20504;-81
2023/11/14 04:36:09;;;;;;;32.20;6.03;;;13.00;98.70;;;;;;5060205;28;20033;-82
2023/11/14 04:38:38;;;;;;;39.47;6.13;;;13.00;98.60;;;;;;5060059;28;20025;-81
2023/11/14 04:41:04;;;;;;;39.30;5.60;;;12.90;98.60;;;;;;5058852;28;20029;-82
2023/11/14 04:43:30;;;;;;;41.38;5.05;;;13.00;98.50;;;;;;5059895;28;20044;-81
2023/11/14 04:45:55;;;;;;;33.80;6.53;;;12.90;98.50;;;;;;5058134;28;20048;-82
2023/11/14 04:48:21;;;;;;;41.10;5.78;;;12.90;98.60;;;;;;5060031;28;20017;-80
2023/11/14 04:50:47;;;;;;;43.67;6.47;;;12.90;98.60;;;;;;5058402;28;20028;-82
2023/11/14 04:53:13;;;;;;;35.47;6.22;;;12.90;98.60;;;;;;5060151;28;20147;-82
2023/11/14 04:55:39;;;;;;;40.45;5.97;;;12.90;98.70;;;;;;5061233;28;20067;-82
2023/11/14 04:58:05;;;;;;;31.85;6.68;;;12.90;98.70;;;;;;5058431;28;20036;-81
2023/11/14 05:00:30;;;;;;;37.45;6.68;;;12.90;98.70;;;;;;5060238;28;20025;-82
2023/11/14 05:03:04;;;;;;;39.25;6.18;;;12.90;98.80;;;;;;5057675;28;20040;-81
2023/11/14 05:05:34;;;;;;;30.17;4.93;;;12.90;98.80;;;;;;5059983;28;20021;-82
2023/11/14 05:08:00;;;;;;;31.27;5.68;;;12.90;98.80;;;;;;5058473;28;20385;-81
2023/11/14 05:10:26;;;;;;;36.88;6.75;;;12.90;98.80;;;;;;5060632;28;20496;-82
2023/11/14 05:12:51;;;;;;;36.05;6.00;;;12.90;98.80;;;;;;5059507;28;20017;-82
2023/11/14 05:15:17;;;;;;;48.25;6.85;;;12.90;98.90;;;;;;5058265;28;20492;-81
2023/11/14 05:17:43;;;;;;;39.55;5.85;;;12.90;98.80;;;;;;5061225;28;20028;-81
2023/11/14 05:20:10;;;;;;;38.30;6.60;;;12.90;98.80;;;;;;5057903;28;20025;-82
2023/11/14 05:22:35;;;;;;;39.40;6.45;;;12.90;98.80;;;;;;5059875;28;20068;-81
2023/11/14 05:25:02;;;;;;;40.95;6.88;;;13.00;98.70;;;;;;5057728;28;20032;-82
2023/11/14 05:27:28;;;;;;;28.35;5.13;;;13.00;98.80;;;;;;5059344;28;20029;-82
2023/11/14 05:29:55;;;;;;;39.10;5.75;;;13.00;98.70;;;;;;5059401;28;20036;-82
2023/11/14 05:32:21;;;;;;;37.67;6.38;;;13.00;98.70;;;;;;5058216;28;20088;-82
2023/11/14 05:34:47;;;;;;;36.20;6.60;;;13.00;98.70;;;;;;5060054;28;20025;-81
2023/11/14 05:37:12;;;;;;;34.22;6.38;;;13.00;98.70;;;;;;5057436;28;20163;-81
2023/11/14 05:39:38;;;;;;;29.40;5.47;;;13.00;98.80;;;;;;5059767;28;20174;-80
2023/11/14 05:42:05;;;;;;;35.15;6.45;;;13.00;98.90;;;;;;5061414;28;20049;-81
2023/11/14 05:44:31;;;;;;;39.10;6.57;;;13.00;98.90;;;;;;5065031;28;20021;-81
2023/11/14 05:46:57;;;;;;;34.67;6.78;;;13.00;99.00;;;;;;5062734;28;20426;-81
2023/11/14 05:49:22;;;;;;;29.02;5.45;;;13.00;99.10;;;;;;5063049;28;20025;-81
2023/11/14 05:51:48;;;;;;;32.55;6.00;;;13.00;99.30;;;;;;5064980;28;20013;-80
2023/11/14 05:54:13;;;;;;;34.75;6.28;;;12.90;99.30;;;;;;5063015;28;20017;-81
2023/11/14 05:56:39;;;;;;;39.47;6.82;;;12.90;99.40;;;;;;5065084;28;20040;-82
2023/11/14 05:59:07;;;;;;;45.80;6.78;;;12.90;99.50;;;;;;5061459;28;20032;-81
2023/11/14 06:01:33;;;;;;;34.85;6.03;;;12.90;99.50;;;;;;5063051;28;20054;-84
2023/11/14 06:03:58;;;;;;;33.67;5.85;;;12.90;99.60;;;;;;5062528;28;20053;-81
2023/11/14 06:06:24;;;;;;;41.05;5.65;;;12.90;99.60;;;;;;5062169;28;20035;-80
2023/11/14 06:08:50;;;;;;;35.05;6.30;;;12.90;99.60;;;;;;5063298;28;20025;-80
2023/11/14 06:11:15;;;;;;;26.10;5.43;;;12.90;99.60;;;;;;5060720;28;20021;-80
2023/11/14 06:13:43;;;;;;;32.75;7.10;;;12.90;99.60;;;;;;5062959;28;20025;-80
2023/11/14 06:16:08;;;;;;;48.97;8.07;;;12.90;99.60;;;;;;5050892;28;20032;-80
2023/11/14 06:18:34;;;;;;;39.50;6.80;;;12.90;99.60;;;;;;5052862;28;20120;-80
2023/11/14 06:21:00;;;;;;;35.90;5.60;;;12.90;99.60;;;;;;5062034;28;20029;-79
2023/11/14 06:23:26;;;;;;;43.15;6.53;;;12.90;99.60;;;;;;5061726;28;20029;-80
2023/11/14 06:25:53;;;;;;;35.08;6.00;;;12.90;99.60;;;;;;5052382;28;20167;-79
2023/11/14 06:28:20;;;;;;;42.88;7.97;;;12.80;99.70;;;;;;5050533;28;20127;-80
2023/11/14 06:30:45;;;;;;;47.72;6.75;;;12.80;99.70;;;;;;5051243;28;20197;-79
2023/11/14 06:33:11;;;;;;;37.70;5.50;;;12.80;99.70;;;;;;5052618;28;20021;-80
2023/11/14 06:35:37;;;;;;;35.92;6.13;;;12.90;99.80;;;;;;5052046;28;20021;-80
2023/11/14 06:38:03;;;;;;;40.22;6.22;;;12.80;99.80;;;;;;5049896;28;20017;-80
2023/11/14 06:40:29;;;;;;;35.22;6.05;;;12.80;99.80;;;;;;5052681;28;20100;-80
2023/11/14 06:42:55;;;;;;;50.45;7.10;;;12.80;99.90;;;;;;5062442;28;20091;-80
2023/11/14 06:45:21;;;;;;;43.80;6.38;;;12.80;99.90;;;;;;5058935;28;20029;-80
2023/11/14 06:47:47;;;;;;;40.55;6.57;;;12.80;99.90;;;;;;5044686;28;20013;-80
2023/11/14 06:50:12;;;;;;;50.42;6.63;;;12.80;99.90;;;;;;5053301;28;20025;-80
2023/11/14 06:52:38;;;;;;;31.42;6.28;;;12.80;99.90;;;;;;5060686;28;20029;-80
2023/11/14 06:55:04;;;;;;;44.33;6.55;;;12.80;99.90;;;;;;5060546;28;20020;-80
2023/11/14 06:57:31;;;;;;;34.88;5.88;;;12.70;99.90;;;;;;5061880;28;20078;-80
2023/11/14 07:00:00;;;;;;;31.08;6.00;;;12.80;99.90;;;;;;5049667;28;20033;-80
2023/11/14 07:02:26;;;;;;;39.75;6.18;;;12.80;99.90;;;;;;5040428;28;20060;-80
2023/11/14 07:04:53;;;;;;;40.00;5.55;;;12.70;99.90;;;;;;5042449;28;20511;-81
2023/11/14 07:07:19;;;;;;;38.42;5.88;;;12.80;99.90;;;;;;5039939;28;20052;-79
2023/11/14 07:09:45;;;;;;;38.55;5.43;;;12.80;99.90;;;;;;5042141;28;20037;-80
2023/11/14 07:12:10;;;;;;;38.45;6.07;;;12.80;99.90;;;;;;5040339;28;20109;-80
2023/11/14 07:14:36;;;;;;;41.55;6.68;;;12.80;99.90;;;;;;5041375;28;20108;-80
2023/11/14 07:17:02;;;;;;;31.35;5.22;;;12.80;99.90;;;;;;5041612;28;20560;-79
2023/11/14 07:19:28;;;;;;;49.47;6.97;;;12.70;99.90;;;;;;5040387;28;20020;-79
2023/11/14 07:21:55;;;;;;;43.53;7.03;;;12.80;99.90;;;;;;5040796;23;20140;-78
2023/11/14 07:24:21;;;;;;;31.08;5.40;;;12.70;99.90;;;;;;5022688;28;20061;-79
2023/11/14 07:26:46;;;;;;;34.63;5.32;;;12.70;99.90;;;;;;5023826;28;20026;-79
2023/11/14 07:29:12;;;;;;;43.40;6.05;;;12.70;99.90;;;;;;5021989;28;20052;-79
2023/11/14 07:31:39;;;;;;;45.33;6.93;;;12.70;99.90;;;;;;5023894;28;20029;-79
2023/11/14 07:34:05;;;;;;;38.53;5.88;;;12.70;99.90;;;;;;5022998;28;20030;-79
2023/11/14 07:36:30;;;;;;;30.33;5.28;;;12.80;99.90;;;;;;5039438;28;20028;-79
2023/11/14 07:38:56;;;;;;;32.78;5.18;;;12.70;99.90;;;;;;5024250;28;20389;-79
2023/11/14 07:41:22;;;;;;;38.08;5.47;;;12.70;99.90;;;;;;5022236;28;20033;-79
2023/11/14 07:43:48;;;;;;;38.90;5.97;;;12.70;99.90;;;;;;5023936;28;20022;-79
2023/11/14 07:46:15;;;;;;;28.73;4.13;;;12.70;99.90;;;;;;5022245;28;20014;-79
2023/11/14 07:48:41;;;;;;;38.75;6.18;;;12.70;99.90;;;;;;5023714;28;20104;-79
2023/11/14 07:51:07;;;;;;;30.52;5.38;;;12.80;99.90;;;;;;5022498;28;20026;-78
2023/11/14 07:53:32;;;;;;;31.52;6.25;;;12.70;99.90;;;;;;5023396;28;20116;-79
2023/11/14 07:56:00;;;;;;;30.75;4.38;;;12.70;99.90;;;;;;5023680;28;20064;-79
2023/11/14 07:58:26;;;;;;;35.60;5.90;;;12.80;99.90;;;;;;5023144;28;20101;-79
2023/11/14 08:00:52;;;;;;;35.13;6.55;;;12.80;99.90;;;;;;5023691;28;20090;-80
2023/11/14 08:03:18;;;;;;;37.67;5.75;;;12.70;99.90;;;;;;5023121;28;20034;-79
2023/11/14 08:05:45;;;;;;;37.40;5.90;;;12.70;99.90;;;;;;5023865;28;20085;-79
2023/11/14 08:08:11;;;;;;;35.60;5.57;;;12.70;99.90;;;;;;5022228;28;20057;-79
2023/11/14 08:10:37;;;;;;;38.47;7.28;;;12.70;99.90;;;;;;5024562;28;20072;-79
2023/11/14 08:13:04;;;;;;;40.83;5.65;;;12.60;99.90;;;;;;5024584;28;20018;-79
2023/11/14 08:15:30;;;;;;;31.90;6.05;;;12.60;99.90;;;;;;5022082;28;20033;-80
2023/11/14 08:17:55;;;;;;;37.33;5.80;;;12.60;99.90;;;;;;5023122;28;20017;-80
2023/11/14 08:20:21;;;;;;;30.55;5.15;;;12.60;99.90;;;;;;5021958;28;20014;-79
2023/11/14 08:22:48;;;;;;;29.50;5.05;;;12.60;99.90;;;;;;5023326;28;20076;-79
2023/11/14 08:25:13;;;;;;;37.50;5.20;;;12.60;99.90;;;;;;5021753;28;20037;-79
2023/11/14 08:27:40;;;;;;;31.08;5.45;;;12.60;99.90;;;;;;5022581;28;20022;-79
2023/11/14 08:30:06;;;;;;;33.38;6.55;;;12.60;99.90;;;;;;5022566;28;20036;-79
2023/11/14 08:32:32;;;;;;;33.25;5.35;;;12.60;99.90;;;;;;5021712;28;20029;-80
2023/11/14 08:34:58;;;;;;;34.10;5.95;;;12.50;99.90;;;;;;5039769;28;20030;-79
2023/11/14 08:37:24;;;;;;;33.88;6.03;;;12.50;99.90;;;;;;5021594;28;20033;-80
2023/11/14 08:39:50;;;;;;;27.55;4.57;;;12.50;99.90;;;;;;5022913;28;20022;-79
2023/11/14 08:42:15;;;;;;;30.25;6.15;;;12.50;99.90;;;;;;5021058;28;20375;-79
2023/11/14 08:44:42;;;;;;;33.33;5.40;;;12.50;99.90;;;;;;5022936;28;20030;-79
2023/11/14 08:47:08;;;;;;;37.38;7.20;;;12.50;99.90;;;;;;5022340;28;20056;-79
2023/11/14 08:49:33;;;;;;;27.20;4.82;;;12.50;99.90;;;;;;5022163;28;20101;-79
2023/11/14 08:51:59;;;;;;;33.28;4.63;;;12.50;99.90;;;;;;5024383;28;20022;-79
2023/11/14 08:54:25;;;;;;;27.88;5.65;;;12.60;99.90;;;;;;5021014;28;20022;-79
2023/11/14 08:56:50;;;;;;;29.65;4.95;;;12.60;99.90;;;;;;5022729;28;20033;-79
2023/11/14 08:59:16;;;;;;;30.88;4.63;;;12.50;99.90;;;;;;5021209;28;20080;-79
2023/11/14 09:01:42;;;;;;;27.15;5.15;;;12.60;99.90;;;;;;5022849;28;20033;-79
2023/11/14 09:04:11;;;;;;;28.05;4.43;;;12.60;99.90;;;;;;5038819;28;20026;-79
2023/11/14 09:06:37;;;;;;;27.50;4.78;;;12.70;99.90;;;;;;5038860;28;20038;-79
2023/11/14 09:09:03;;;;;;;32.50;5.20;;;12.70;99.90;;;;;;5025217;28;20325;-79
2023/11/14 09:11:29;;;;;;;27.48;4.38;;;12.70;99.90;;;;;;5023216;28;20113;-79
2023/11/14 09:13:57;;;;;;;21.10;4.20;;;12.80;99.90;;;;;;5025718;28;20215;-79
2023/11/14 09:16:26;;;;;;;27.17;4.75;;;13.00;99.90;;;;;;5020199;28;20022;-79
2023/11/14 09:18:54;;;;;;;30.58;4.47;;;13.00;99.90;;;;;;5024128;28;20022;-80
2023/11/14 09:21:23;;;;;;;24.48;4.25;;;13.10;99.90;;;;;;5038263;28;20053;-78
2023/11/14 09:23:48;;;;;;;25.00;5.38;;;13.10;99.90;;;;;;5019964;28;20018;-79
2023/11/14 09:26:14;;;;;;;28.27;4.45;;;13.20;99.90;;;;;;5021641;28;20014;-79
2023/11/14 09:28:40;;;;;;;30.50;5.22;;;13.10;99.90;;;;;;5019084;28;20018;-79
2023/11/14 09:31:07;;;;;;;27.77;4.47;;;13.20;99.90;;;;;;5021316;28;20022;-79
2023/11/14 09:33:33;;;;;;;29.95;4.95;;;13.30;99.90;;;;;;5019276;28;20076;-79
2023/11/14 09:35:59;;;;;;;29.33;5.15;;;13.30;99.90;;;;;;5021453;28;20025;-78
2023/11/14 09:38:24;;;;;;;28.85;5.53;;;13.40;99.90;;;;;;5019941;28;20045;-79
2023/11/14 09:40:51;;;;;;;30.33;5.30;;;13.50;99.90;;;;;;5021918;28;20494;-79
2023/11/14 09:43:23;;;;;;;24.48;5.82;;;13.60;99.90;;;;;;5021014;28;20026;-78
2023/11/14 09:45:50;;;;;;;28.05;4.70;;;13.70;99.90;;;;;;5019575;28;20033;-79
2023/11/14 09:48:17;;;;;;;24.77;4.13;;;13.80;99.90;;;;;;5021509;28;20036;-79
2023/11/14 09:50:43;;;;;;;24.08;3.97;;;13.90;99.90;;;;;;5020584;28;20034;-79
2023/11/14 09:53:09;;;;;;;24.52;4.18;;;14.00;99.90;;;;;;5021166;28;20090;-80
2023/11/14 09:55:35;;;;;;;25.67;3.90;;;14.10;99.90;;;;;;5019694;28;20026;-79
2023/11/14 09:58:01;;;;;;;27.77;4.63;;;14.20;99.90;;;;;;5020176;28;20037;-79
2023/11/14 10:00:30;;;;;;;29.88;6.32;;;14.20;99.90;;;;;;5021007;28;20018;-80
2023/11/14 10:02:57;;;;;;;27.33;5.22;;;14.20;99.90;;;;;;5019110;28;20018;-80
2023/11/14 10:05:23;;;;;;;35.33;5.60;;;14.20;99.90;;;;;;5022754;28;20022;-80
2023/11/14 10:07:53;;;;;;;35.20;6.10;;;14.30;99.90;;;;;;5020078;28;20108;-79
2023/11/14 10:10:19;;;;;;;30.13;5.28;;;14.30;99.70;;;;;;5020680;28;20033;-79
2023/11/14 10:12:44;;;;;;;34.22;5.50;;;14.30;99.70;;;;;;5020009;28;20022;-79
2023/11/14 10:15:10;;;;;;;28.35;5.63;;;14.30;99.50;;;;;;5020123;28;20014;-79
2023/11/14 10:17:42;;;;;;;29.45;5.35;;;14.50;99.20;;;;;;5020903;28;20046;-79
2023/11/14 10:20:09;;;;;;;34.30;6.40;;;14.50;98.70;;;;;;5035117;28;20030;-79
2023/11/14 10:22:35;;;;;;;36.85;6.45;;;14.60;98.60;;;;;;5020216;28;20061;-79
2023/11/14 10:25:01;;;;;;;25.67;4.47;;;14.90;98.50;;;;;;5018771;28;20057;-79
2023/11/14 10:27:33;;;;;;;27.40;6.38;;;15.00;98.00;;;;;;5022826;28;20029;-79
2023/11/14 10:29:59;;;;;;;33.10;6.47;;;15.20;97.40;;;;;;5024898;28;20022;-79
2023/11/14 10:32:25;;;;;;;31.63;6.00;;;15.20;96.00;;;;;;5039589;28;20033;-79
2023/11/14 10:34:52;;;;;;;30.00;6.13;;;15.10;95.60;;;;;;5024936;28;20022;-79
2023/11/14 10:37:33;;;;;;;28.63;5.22;;;15.10;95.20;;;;;;5022229;28;20363;-79
2023/11/14 10:39:59;;;;;;;27.70;5.70;;;15.00;95.40;;;;;;5024610;28;20056;-79
2023/11/14 10:42:26;;;;;;;29.40;5.25;;;15.00;95.20;;;;;;5022099;28;20049;-79
2023/11/14 10:45:01;;;;;;;37.00;6.50;;;14.90;95.20;;;;;;5023962;28;20494;-79
2023/11/14 10:47:36;;;;;;;33.42;5.90;;;14.90;95.20;;;;;;5025561;28;20014;-79
2023/11/14 10:50:04;;;;;;;31.80;5.45;;;14.90;94.90;;;;;;5023029;28;20048;-79
2023/11/14 10:52:37;;;;;;;26.45;4.60;;;14.90;94.70;;;;;;5023822;28;20036;-79
2023/11/14 10:55:05;;;;;;;26.65;4.40;;;14.80;94.60;;;;;;5021875;28;20106;-79
2023/11/14 10:57:32;;;;;;;24.30;4.07;;;14.80;94.80;;;;;;5040474;28;20033;-79
2023/11/14 10:59:59;;;;;;;26.10;5.28;;;14.80;94.80;;;;;;5039225;28;20041;-79
2023/11/14 11:02:32;;;;;;;32.45;5.70;;;14.70;94.80;;;;;;5023943;28;20030;-79
2023/11/14 11:05:03;;;;;;;27.40;4.75;;;14.70;94.80;;;;;;5023877;28;20018;-79
2023/11/14 11:07:29;;;;;;;27.00;5.65;;;14.70;94.70;;;;;;5021126;28;20033;-78
2023/11/14 11:09:55;;;;;;;28.52;5.00;;;14.60;94.80;;;;;;5023875;28;20088;-79
2023/11/14 11:12:23;;;;;;;28.05;5.00;;;14.60;94.90;;;;;;5038308;28;20026;-81
2023/11/14 11:14:49;;;;;;;32.58;4.88;;;14.60;95.00;;;;;;5040070;28;20126;-80
2023/11/14 11:17:39;;;;;;;26.23;5.28;;;14.60;95.10;;;;;;5024158;28;20022;-80
2023/11/14 11:20:08;;;;;;;26.23;5.82;;;14.50;95.20;;;;;;5020865;28;20409;-79
2023/11/14 11:23:11;;;;;;;28.23;5.53;;;14.40;95.30;;;;;;5023296;28;20053;-79
2023/11/14 11:25:40;;;;;;;28.30;5.65;;;14.40;95.40;;;;;;5023582;28;20060;-79
2023/11/14 11:28:21;;;;;;;26.83;5.47;;;14.40;95.40;;;;;;5022034;28;20038;-79
2023/11/14 11:31:06;;;;;;;26.02;5.13;;;14.40;95.40;;;;;;5024526;28;20013;-79
2023/11/14 11:33:40;;;;;;;28.50;5.40;;;14.30;95.40;;;;;;5021020;28;20014;-78
2023/11/14 11:36:22;;;;;;;29.83;5.75;;;14.30;95.50;;;;;;5023013;28;20052;-79
2023/11/14 11:38:58;;;;;;;27.35;5.60;;;14.20;95.60;;;;;;5038960;28;20026;-79
2023/11/14 11:41:25;;;;;;;23.48;4.75;;;14.20;95.80;;;;;;5037761;28;20030;-79
2023/11/14 11:44:17;;;;;;;31.55;5.68;;;14.20;96.00;;;;;;5023191;28;20470;-80
2023/11/14 11:46:45;;;;;;;24.70;5.53;;;14.10;96.00;;;;;;5018284;28;20121;-80
2023/11/14 11:49:11;;;;;;;23.10;4.70;;;14.10;96.10;;;;;;5022263;28;20437;-80
2023/11/14 11:51:43;;;;;;;30.77;5.20;;;14.10;96.20;;;;;;5039032;28;20121;-79
2023/11/14 11:54:27;;;;;;;27.88;4.80;;;14.10;96.70;;;;;;5037580;28;20029;-79
2023/11/14 11:57:05;;;;;;;22.63;4.97;;;14.00;96.90;;;;;;5007181;28;20030;-80
2023/11/14 11:59:53;;;;;;;30.58;5.05;;;14.00;97.20;;;;;;5017339;28;20030;-80
2023/11/14 12:02:23;;;;;;;24.30;4.90;;;13.90;97.30;;;;;;4989805;28;20658;-80
2023/11/14 12:04:52;;;;;;;22.15;3.88;;;13.90;97.70;;;;;;5019008;28;20027;-79
2023/11/14 12:07:18;;;;;;;23.23;4.60;;;13.90;97.80;;;;;;5017171;28;20033;-80
2023/11/14 12:09:45;;;;;;;26.35;5.50;;;13.90;97.90;;;;;;5019678;28;20011;-80
2023/11/14 12:12:12;;;;;;;20.73;3.55;;;13.90;98.10;;;;;;5017272;28;20033;-80
2023/11/14 12:14:38;;;;;;;15.70;4.35;;;14.00;98.20;;;;;;5019139;28;20438;-80
2023/11/14 12:17:06;;;;;;;23.98;4.82;;;14.00;98.30;;;;;;5018200;28;20505;-79
2023/11/14 12:19:35;;;;;;;24.38;5.30;;;14.00;98.30;;;;;;5002508;28;20014;-79
2023/11/14 12:22:01;;;;;;;17.67;4.15;;;14.00;98.20;;;;;;5018832;28;20054;-79
2023/11/14 12:24:27;;;;;;;16.75;3.22;;;14.10;98.30;;;;;;5017225;28;20031;-79
2023/11/14 12:26:53;;;;;;;25.45;4.72;;;14.10;98.20;;;;;;5019330;28;20026;-80
2023/11/14 12:29:19;;;;;;;25.20;5.30;;;14.10;98.10;;;;;;5017157;28;20390;-79
2023/11/14 12:31:52;;;;;;;25.30;4.63;;;14.10;98.00;;;;;;5006147;28;20018;-79
2023/11/14 12:34:30;;;;;;;23.13;4.73;;;14.00;98.00;;;;;;5019808;28;20018;-79